Time;durP1;ratioP1;P1;durP2;ratioP2;P2;SDS_P1;SDS_P2;PMS_P1;PMS_P2;Temp;Humidity;BMP_temperature;BMP_pressure;BME280_temperature;BME280_humidity;BME280_pressure;Samples;Min_cycle;Max_cycle;Signal;HPM_P1;HPM_P2
2023/05/15 00:43:07;;;;;;;3.80;2.30;;;;;;;;;;6231825;22;20175;-93
2023/05/15 00:46:22;;;;;;;3.45;2.17;;;;;;;;;;6213622;23;20175;-90
2023/05/15 00:49:28;;;;;;;5.03;2.72;;;;;;;;;;6232769;22;20170;-91
2023/05/15 00:52:33;;;;;;;2.60;2.30;;;;;;;;;;6215266;23;20166;-92
2023/05/15 00:55:40;;;;;;;4.07;2.40;;;;;;;;;;6231499;22;20231;-89
2023/05/15 01:02:06;;;;;;;6.90;2.50;;;;;;;;;;6232558;22;20227;-95
2023/05/15 01:05:12;;;;;;;4.43;2.45;;;;;;;;;;6215640;23;20222;-92
2023/05/15 01:08:22;;;;;;;3.72;2.55;;;;;;;;;;6229356;22;20170;-91
2023/05/15 01:11:34;;;;;;;3.20;2.10;;;;;;;;;;6233442;22;20259;-92
2023/05/15 01:14:41;;;;;;;5.03;2.08;;;;;;;;;;6232747;22;20195;-91
2023/05/15 01:21:28;;;;;;;3.50;2.35;;;;;;;;;;6215635;23;20171;-91
2023/05/15 01:24:44;;;;;;;5.63;2.17;;;;;;;;;;6217141;23;20174;-91
2023/05/15 01:27:53;;;;;;;3.15;2.20;;;;;;;;;;6213723;23;20147;-91
2023/05/15 01:31:02;;;;;;;7.70;2.40;;;;;;;;;;6216001;22;20179;-92
2023/05/15 01:34:09;;;;;;;3.88;2.38;;;;;;;;;;6214602;22;20195;-93
2023/05/15 01:37:15;;;;;;;5.57;2.38;;;;;;;;;;6232938;22;20199;-92
2023/05/15 01:40:23;;;;;;;4.32;2.38;;;;;;;;;;6216236;22;20203;-91
2023/05/15 01:47:34;;;;;;;4.72;2.40;;;;;;;;;;6233985;22;20171;-90
2023/05/15 01:50:41;;;;;;;5.40;2.50;;;;;;;;;;6216732;22;20191;-92
2023/05/15 01:53:46;;;;;;;4.22;2.63;;;;;;;;;;6214312;23;20163;-92
2023/05/15 01:56:52;;;;;;;5.75;2.28;;;;;;;;;;6234507;22;20195;-92
2023/05/15 01:59:58;;;;;;;8.48;2.88;;;;;;;;;;6216779;22;20611;-92
2023/05/15 02:03:07;;;;;;;3.47;2.47;;;;;;;;;;6215482;22;20215;-93
2023/05/15 02:06:13;;;;;;;4.65;2.42;;;;;;;;;;6217335;23;20237;-93
2023/05/15 02:09:19;;;;;;;3.72;2.72;;;;;;;;;;6215288;23;20163;-92
2023/05/15 02:12:25;;;;;;;8.63;2.80;;;;;;;;;;6232925;22;20175;-92
2023/05/15 02:15:31;;;;;;;4.15;2.58;;;;;;;;;;6215324;22;20155;-93
2023/05/15 02:18:40;;;;;;;6.10;3.13;;;;;;;;;;6231883;22;20171;-91
2023/05/15 02:21:45;;;;;;;4.80;3.03;;;;;;;;;;6215087;23;20171;-92
2023/05/15 02:24:51;;;;;;;6.00;3.00;;;;;;;;;;6213786;23;20258;-91
2023/05/15 02:27:59;;;;;;;7.13;2.67;;;;;;;;;;6213980;22;20159;-92
2023/05/15 02:31:06;;;;;;;3.95;2.72;;;;;;;;;;6213821;22;20195;-93
2023/05/15 02:34:18;;;;;;;5.38;2.90;;;;;;;;;;6215789;22;20175;-92
2023/05/15 02:37:25;;;;;;;4.55;2.80;;;;;;;;;;6233238;23;20211;-92
2023/05/15 02:40:33;;;;;;;4.25;3.08;;;;;;;;;;6214645;23;20187;-92
2023/05/15 02:47:33;;;;;;;3.63;2.65;;;;;;;;;;6231160;22;20236;-92
2023/05/15 02:50:41;;;;;;;5.75;3.10;;;;;;;;;;6232929;22;20191;-91
2023/05/15 02:53:46;;;;;;;5.20;3.15;;;;;;;;;;6214357;23;20363;-92
2023/05/15 02:56:52;;;;;;;5.15;3.28;;;;;;;;;;6231952;22;20158;-92
2023/05/15 02:59:57;;;;;;;3.63;3.00;;;;;;;;;;6232907;22;20218;-91
2023/05/15 03:03:03;;;;;;;5.07;3.00;;;;;;;;;;6215709;23;20170;-91
2023/05/15 03:06:10;;;;;;;3.53;2.67;;;;;;;;;;6232936;22;20489;-91
2023/05/15 03:09:16;;;;;;;3.97;2.67;;;;;;;;;;6213738;22;20214;-92
2023/05/15 03:12:22;;;;;;;6.65;3.72;;;;;;;;;;6216131;22;20159;-91
2023/05/15 03:15:27;;;;;;;6.03;2.85;;;;;;;;;;6215701;22;20171;-92
2023/05/15 03:18:36;;;;;;;7.05;3.35;;;;;;;;;;6216267;23;20146;-92
2023/05/15 03:21:44;;;;;;;5.32;3.25;;;;;;;;;;6216629;23;20206;-91
2023/05/15 03:24:50;;;;;;;6.15;3.00;;;;;;;;;;6214568;22;20213;-92
2023/05/15 03:27:55;;;;;;;6.25;3.35;;;;;;;;;;6215949;22;20179;-91
2023/05/15 03:31:02;;;;;;;5.55;3.50;;;;;;;;;;6216315;23;20179;-91
2023/05/15 03:34:07;;;;;;;6.80;3.67;;;;;;;;;;6218095;23;20212;-91
2023/05/15 03:37:14;;;;;;;5.18;3.65;;;;;;;;;;6217009;23;20164;-90
2023/05/15 03:40:21;;;;;;;5.38;3.47;;;;;;;;;;6216186;23;20190;-91
2023/05/15 03:43:26;;;;;;;11.40;4.50;;;;;;;;;;6234943;22;20152;-90
2023/05/15 03:46:36;;;;;;;6.10;3.97;;;;;;;;;;6233437;22;20239;-93
2023/05/15 03:49:42;;;;;;;10.35;3.83;;;;;;;;;;6216599;23;20151;-92
2023/05/15 03:52:49;;;;;;;8.30;4.38;;;;;;;;;;6238105;22;20219;-89
2023/05/15 03:55:55;;;;;;;8.93;4.13;;;;;;;;;;6232977;22;20175;-92
2023/05/15 03:59:01;;;;;;;11.60;4.25;;;;;;;;;;6216609;22;20175;-92
2023/05/15 04:02:28;;;;;;;6.60;3.90;;;;;;;;;;6237522;22;20171;-94
2023/05/15 04:05:34;;;;;;;6.95;4.03;;;;;;;;;;6236783;22;20503;-90
2023/05/15 04:08:41;;;;;;;7.45;4.20;;;;;;;;;;6217993;22;20147;-91
2023/05/15 04:11:47;;;;;;;6.97;3.72;;;;;;;;;;6215940;22;20250;-92
2023/05/15 04:14:53;;;;;;;4.97;3.42;;;;;;;;;;6215222;22;20499;-90
2023/05/15 04:18:00;;;;;;;8.05;4.20;;;;;;;;;;6216191;23;20210;-91
2023/05/15 04:21:05;;;;;;;6.95;4.00;;;;;;;;;;6215842;23;20207;-92
2023/05/15 04:24:12;;;;;;;6.97;4.30;;;;;;;;;;6215832;22;20155;-92
2023/05/15 04:27:18;;;;;;;8.10;4.03;;;;;;;;;;6216290;22;20168;-92
2023/05/15 04:30:23;;;;;;;7.13;4.25;;;;;;;;;;6215777;22;20159;-92
2023/05/15 04:33:29;;;;;;;6.63;4.05;;;;;;;;;;6217091;23;20210;-92
2023/05/15 04:36:38;;;;;;;12.43;5.15;;;;;;;;;;6236077;22;20222;-91
2023/05/15 04:39:49;;;;;;;8.05;4.45;;;;;;;;;;6234067;22;20167;-92
2023/05/15 04:42:54;;;;;;;7.60;4.50;;;;;;;;;;6217799;22;20183;-90
2023/05/15 04:46:33;;;;;;;12.45;4.30;;;;;;;;;;6215925;22;20151;-91
2023/05/15 04:49:40;;;;;;;11.02;4.47;;;;;;;;;;6217965;22;20175;-91
2023/05/15 04:52:46;;;;;;;9.10;4.10;;;;;;;;;;6233410;22;20194;-92
2023/05/15 04:56:07;;;;;;;8.73;4.25;;;;;;;;;;6218088;22;20154;-92
2023/05/15 04:59:14;;;;;;;5.60;3.88;;;;;;;;;;6216911;22;20163;-91
2023/05/15 05:02:22;;;;;;;7.28;4.47;;;;;;;;;;6232472;22;20159;-91
2023/05/15 05:05:28;;;;;;;11.75;4.72;;;;;;;;;;6217982;22;20148;-90
2023/05/15 05:08:33;;;;;;;13.57;4.50;;;;;;;;;;6231060;22;20210;-91
2023/05/15 05:11:42;;;;;;;8.55;4.90;;;;;;;;;;6230246;22;20175;-91
2023/05/15 05:14:49;;;;;;;8.07;4.30;;;;;;;;;;6216713;22;20260;-90
2023/05/15 05:17:54;;;;;;;5.72;4.18;;;;;;;;;;6215661;23;20182;-90
2023/05/15 05:21:00;;;;;;;6.28;3.60;;;;;;;;;;6215773;23;20170;-92
2023/05/15 05:24:06;;;;;;;5.65;3.60;;;;;;;;;;6212860;23;20168;-91
2023/05/15 05:27:14;;;;;;;5.97;3.50;;;;;;;;;;6232599;22;20147;-92
2023/05/15 05:30:24;;;;;;;5.07;3.45;;;;;;;;;;6217168;22;20154;-93
2023/05/15 05:33:31;;;;;;;11.52;5.20;;;;;;;;;;6216486;22;20210;-92
2023/05/15 05:36:38;;;;;;;8.18;3.25;;;;;;;;;;6216558;22;20245;-92
2023/05/15 05:39:43;;;;;;;6.95;4.15;;;;;;;;;;6233271;22;20166;-91
2023/05/15 05:42:48;;;;;;;8.65;4.30;;;;;;;;;;6232262;22;20154;-91
2023/05/15 05:46:19;;;;;;;11.20;5.00;;;;;;;;;;6234236;22;20151;-91
2023/05/15 05:49:26;;;;;;;6.88;4.18;;;;;;;;;;6215483;23;20238;-91
2023/05/15 05:52:33;;;;;;;5.63;3.58;;;;;;;;;;6216923;23;20207;-91
2023/05/15 05:55:39;;;;;;;9.75;5.43;;;;;;;;;;6232989;22;20159;-92
2023/05/15 05:58:45;;;;;;;5.45;3.90;;;;;;;;;;6216614;23;20206;-93
2023/05/15 06:01:53;;;;;;;6.45;3.83;;;;;;;;;;6217649;22;20187;-90
2023/05/15 06:05:02;;;;;;;4.80;3.40;;;;;;;;;;6218500;22;20167;-90
2023/05/15 06:08:08;;;;;;;6.13;3.20;;;;;;;;;;6214693;23;20163;-90
2023/05/15 06:11:14;;;;;;;9.70;3.90;;;;;;;;;;6232251;22;20178;-90
2023/05/15 06:14:19;;;;;;;6.97;3.53;;;;;;;;;;6231566;22;20174;-91
2023/05/15 06:17:24;;;;;;;4.05;2.75;;;;;;;;;;6216432;22;20167;-91
2023/05/15 06:20:31;;;;;;;4.70;3.15;;;;;;;;;;6216227;23;20191;-91
2023/05/15 06:23:45;;;;;;;5.13;3.13;;;;;;;;;;6233120;22;20503;-91
2023/05/15 06:26:51;;;;;;;6.07;3.10;;;;;;;;;;6229813;22;20200;-91
2023/05/15 06:29:56;;;;;;;3.88;2.70;;;;;;;;;;6216159;22;20187;-89
2023/05/15 06:33:02;;;;;;;6.10;3.03;;;;;;;;;;6216561;22;20194;-92
2023/05/15 06:36:13;;;;;;;34.45;20.00;;;;;;;;;;6216574;23;20167;-93
2023/05/15 06:42:37;;;;;;;12.63;9.35;;;;;;;;;;6187947;23;20172;-93
2023/05/15 06:46:19;;;;;;;3.83;2.33;;;;;;;;;;6186280;23;20155;-90
2023/05/15 06:49:25;;;;;;;4.25;2.38;;;;;;;;;;6169407;23;20168;-90
2023/05/15 06:52:33;;;;;;;4.47;2.40;;;;;;;;;;6205377;23;20187;-90
2023/05/15 06:55:41;;;;;;;6.63;3.13;;;;;;;;;;6186224;23;20200;-90
2023/05/15 06:58:46;;;;;;;4.35;2.72;;;;;;;;;;6186691;23;20171;-89
2023/05/15 07:01:52;;;;;;;5.47;3.38;;;;;;;;;;6186942;23;20219;-90
2023/05/15 07:04:58;;;;;;;11.77;4.65;;;;;;;;;;6187447;23;20180;-91
2023/05/15 07:08:05;;;;;;;3.53;2.10;;;;;;;;;;6183919;23;20167;-90
2023/05/15 07:11:10;;;;;;;3.90;2.28;;;;;;;;;;6183585;23;20156;-90
2023/05/15 07:14:16;;;;;;;6.10;2.55;;;;;;;;;;6185599;23;20237;-92
2023/05/15 07:17:37;;;;;;;20.08;7.40;;;;;;;;;;6186440;23;20172;-91
2023/05/15 07:20:43;;;;;;;14.02;5.85;;;;;;;;;;6183400;23;20173;-92
2023/05/15 07:23:51;;;;;;;12.35;4.88;;;;;;;;;;6183920;23;20155;-91
2023/05/15 07:26:57;;;;;;;28.90;14.73;;;;;;;;;;6183543;23;20175;-92
2023/05/15 07:30:02;;;;;;;10.68;4.05;;;;;;;;;;6202065;23;20175;-91
2023/05/15 07:36:39;;;;;;;7.30;4.43;;;;;;;;;;6202551;23;20172;-89
2023/05/15 07:40:11;;;;;;;5.45;2.70;;;;;;;;;;6187315;23;20160;-91
2023/05/15 07:43:24;;;;;;;5.13;2.60;;;;;;;;;;6217270;23;20694;-91
2023/05/15 07:50:24;;;;;;;4.30;2.05;;;;;;;;;;6231785;22;20143;-93
2023/05/15 07:53:29;;;;;;;6.40;2.92;;;;;;;;;;6232076;22;20186;-90
2023/05/15 07:56:35;;;;;;;3.67;2.10;;;;;;;;;;6217355;23;20183;-91
2023/05/15 07:59:42;;;;;;;3.38;2.17;;;;;;;;;;6214629;23;20167;-91
2023/05/15 08:02:50;;;;;;;3.88;2.08;;;;;;;;;;6216611;22;20190;-92
2023/05/15 08:05:55;;;;;;;4.50;2.67;;;;;;;;;;6216758;22;20162;-91
2023/05/15 08:09:00;;;;;;;3.30;2.17;;;;;;;;;;6217151;23;20163;-89
2023/05/15 08:12:19;;;;;;;4.50;2.83;;;;;;;;;;6234629;22;20243;-93
2023/05/15 08:18:47;;;;;;;9.38;2.40;;;;;;;;;;6233558;22;20194;-92
2023/05/15 08:21:52;;;;;;;10.00;3.00;;;;;;;;;;6217488;22;20486;-91
2023/05/15 08:24:59;;;;;;;3.50;2.00;;;;;;;;;;6218476;23;20164;-91
2023/05/15 08:28:05;;;;;;;11.63;6.50;;;;;;;;;;6214260;23;20155;-92
2023/05/15 08:31:12;;;;;;;8.05;4.28;;;;;;;;;;6213419;23;20175;-91
2023/05/15 08:34:17;;;;;;;2.97;1.95;;;;;;;;;;6231033;22;20175;-92
2023/05/15 08:37:23;;;;;;;3.83;2.58;;;;;;;;;;6232282;22;20250;-93
2023/05/15 08:40:29;;;;;;;16.10;7.78;;;;;;;;;;6215719;23;20202;-92
2023/05/15 08:43:38;;;;;;;8.25;4.10;;;;;;;;;;6216278;23;20167;-91
2023/05/15 12:32:32;;;;;;;1.75;1.40;;;;;;;;;;6287711;22;20209;-91
2023/05/15 12:35:38;;;;;;;11.18;1.80;;;;;;;;;;6307239;22;20223;-92
2023/05/15 12:38:45;;;;;;;4.05;1.40;;;;;;;;;;6306725;22;20164;-90
2023/05/15 12:41:57;;;;;;;2.25;1.10;;;;;;;;;;6325659;22;20553;-91
2023/05/15 22:23:00;;;;;;;21.27;8.80;;;;;;;;;;6270893;22;20197;-92
2023/05/15 22:26:05;;;;;;;26.75;9.68;;;;;;;;;;6324208;22;20536;-92
2023/05/15 22:29:11;;;;;;;24.08;8.90;;;;;;;;;;6322414;22;20295;-90
2023/05/15 22:32:28;;;;;;;25.30;10.15;;;;;;;;;;6323034;22;20149;-89
2023/05/15 22:35:34;;;;;;;23.83;10.50;;;;;;;;;;6323157;22;20165;-90
2023/05/15 22:38:41;;;;;;;28.42;11.05;;;;;;;;;;6324272;22;20168;-91
2023/05/15 22:41:47;;;;;;;27.15;9.80;;;;;;;;;;6325151;22;20215;-92
2023/05/15 22:45:37;;;;;;;21.52;10.65;;;;;;;;;;6324497;22;20223;-90
2023/05/15 22:48:42;;;;;;;20.05;10.02;;;;;;;;;;6323918;22;20181;-88
2023/05/15 22:51:47;;;;;;;24.42;9.85;;;;;;;;;;6323993;22;20164;-91
2023/05/15 22:54:54;;;;;;;21.38;9.90;;;;;;;;;;6303309;22;20502;-91
2023/05/15 22:57:59;;;;;;;21.13;10.23;;;;;;;;;;6304292;22;20169;-91
2023/05/15 23:01:06;;;;;;;23.15;11.70;;;;;;;;;;6322722;22;20161;-90
2023/05/15 23:04:12;;;;;;;17.60;9.85;;;;;;;;;;6321630;22;20201;-91
2023/05/15 23:07:18;;;;;;;20.83;9.65;;;;;;;;;;6323501;22;20170;-92
2023/05/15 23:10:25;;;;;;;20.35;10.77;;;;;;;;;;6323919;22;20161;-91
2023/05/15 23:13:30;;;;;;;21.52;9.93;;;;;;;;;;6324573;22;20172;-90
2023/05/15 23:20:49;;;;;;;31.67;11.10;;;;;;;;;;6324188;22;20581;-91
2023/05/15 23:23:54;;;;;;;32.38;11.75;;;;;;;;;;6324627;22;20208;-90
2023/05/15 23:27:01;;;;;;;21.23;10.85;;;;;;;;;;6308592;22;20214;-89
2023/05/15 23:30:07;;;;;;;22.85;11.20;;;;;;;;;;6327188;22;20168;-92
2023/05/15 23:33:12;;;;;;;27.27;11.35;;;;;;;;;;6327212;22;20153;-89
2023/05/15 23:36:18;;;;;;;30.35;10.55;;;;;;;;;;6328681;22;20184;-89
2023/05/15 23:39:23;;;;;;;30.60;10.82;;;;;;;;;;6328168;22;20533;-89
2023/05/15 23:42:30;;;;;;;51.30;11.20;;;;;;;;;;6309192;22;20164;-89
2023/05/15 23:45:40;;;;;;;31.17;11.50;;;;;;;;;;6327776;22;20165;-91
2023/05/15 23:48:46;;;;;;;35.20;12.77;;;;;;;;;;6327885;22;20149;-91
2023/05/15 23:51:51;;;;;;;92.82;12.13;;;;;;;;;;6327226;22;20165;-89
2023/05/15 23:54:57;;;;;;;50.75;11.63;;;;;;;;;;6326247;22;20145;-91
2023/05/15 23:58:05;;;;;;;24.67;10.77;;;;;;;;;;6326200;22;20145;-92
